Nautic — A8HQ3 — position and weather

sailwx.info

Track history (hours):
 
Tides and Currents Weather Stations Pressure Air Temp Water Temp Dewpoint Dewpoint Depression Visibility Wind Speed Wind Dir Waves Ship Positions

Nautic

Last reported at 2016-Jul-22 20:09 UTC. Time now 2016-Jul-25 10:02 UTC.
Position N 31°28' E 032°19'.

; draft 8.5 m.

Type: Ship. MMSI: 636012754.

Date/timePositionNaut miles runAvg speedWind from/ knotsBaromVisibWave heightAir tempDewpointWater temp
2016-Jul-22 20:09N 31°28' E 032°19'0 0.0
2016-Jul-22 19:24N 31°28' E 032°19'182 5.9
2016-Jul-21 12:27N 34°23' E 033°15'9 9.6
2016-Jul-21 11:34N 34°32' E 033°17'0 0.5
2016-Jul-21 10:34N 34°32' E 033°17'4 4.4
2016-Jul-21 09:34N 34°31' E 033°23'3 2.6
2016-Jul-21 08:29N 34°32' E 033°26'1 1.0
2016-Jul-21 07:33N 34°32' E 033°27'0 0.3
2016-Jul-21 06:33N 34°32' E 033°27'0 0.3
2016-Jul-21 05:33N 34°32' E 033°27'0 0.4
2016-Jul-21 04:32N 34°31' E 033°26'0 0.4
2016-Jul-21 03:34N 34°31' E 033°26'0 0.4
2016-Jul-21 02:33N 34°31' E 033°25'0 0.4
2016-Jul-21 01:34N 34°31' E 033°25'0 0.3
2016-Jul-21 00:33N 34°31' E 033°25'0 0.4
2016-Jul-20 23:34N 34°30' E 033°24'0 0.4
2016-Jul-20 22:34N 34°30' E 033°24'0 0.4
2016-Jul-20 21:33N 34°30' E 033°24'0 0.4
2016-Jul-20 20:34N 34°29' E 033°23'0 0.4
2016-Jul-20 19:34N 34°29' E 033°23'0 0.4
2016-Jul-20 18:34N 34°29' E 033°23'0 0.3
2016-Jul-20 17:34N 34°29' E 033°22'0 0.3
2016-Jul-20 16:33N 34°29' E 033°22'0 0.3
2016-Jul-20 15:34N 34°29' E 033°21'0 0.4
2016-Jul-20 14:34N 34°29' E 033°21'0 0.5
2016-Jul-20 13:33N 34°29' E 033°20'1 0.5
2016-Jul-20 12:33N 34°29' E 033°20'1 0.6
2016-Jul-20 11:34N 34°29' E 033°19'1 0.6
2016-Jul-20 10:34N 34°29' E 033°18'1 0.5
2016-Jul-20 09:34N 34°29' E 033°18'1 0.5
2016-Jul-20 08:33N 34°29' E 033°17'1 1.3
2016-Jul-20 07:33N 34°27' E 033°16'3 3.3
2016-Jul-20 06:34N 34°24' E 033°16'6 2.8
2016-Jul-20 04:34N 34°25' E 033°23'0 0.5
2016-Jul-20 03:34N 34°25' E 033°23'2 2.1
2016-Jul-20 02:30N 34°25' E 033°20'2 0.8
2016-Jul-20 00:29N 34°25' E 033°19'1 0.7
2016-Jul-19 23:34N 34°24' E 033°18'1 0.6
2016-Jul-19 22:13N 34°24' E 033°17'0 0.5
2016-Jul-19 21:31N 34°24' E 033°17'0 0.1
2016-Jul-19 20:14N 34°24' E 033°17'2 2.3
2016-Jul-19 19:33N 34°23' E 033°18'4 3.8
2016-Jul-19 18:29N 34°22' E 033°23'1 0.4
2016-Jul-19 17:04N 34°23' E 033°24'0 0.6
2016-Jul-19 16:29N 34°23' E 033°24'4 0.8
2016-Jul-19 11:34N 34°24' E 033°19'1 0.6
2016-Jul-19 10:33N 34°24' E 033°18'2 1.7
2016-Jul-19 09:34N 34°23' E 033°20'1 0.5
2016-Jul-19 07:33N 34°23' E 033°19'4 1.2
2016-Jul-19 04:34N 34°25' E 033°23'1 1.0
2016-Jul-19 03:33N 34°24' E 033°22'1 0.8
2016-Jul-19 02:05N 34°23' E 033°21'0 0.6
2016-Jul-19 01:33N 34°23' E 033°21'1 0.5
2016-Jul-19 00:33N 34°23' E 033°20'0 0.5
2016-Jul-18 23:33N 34°22' E 033°20'0 0.5
2016-Jul-18 22:34N 34°23' E 033°19'1 0.5
2016-Jul-18 21:33N 34°23' E 033°19'1 0.7
2016-Jul-18 20:33N 34°23' E 033°18'1 1.1
2016-Jul-18 19:33N 34°24' E 033°18'3 3.2
2016-Jul-18 18:33N 34°27' E 033°19'2 1.9
2016-Jul-18 17:34N 34°29' E 033°20'1 0.8
2016-Jul-18 16:33N 34°29' E 033°20'1 0.9
2016-Jul-18 15:33N 34°30' E 033°19'1 0.6
2016-Jul-18 14:34N 34°30' E 033°18'3 2.8
2016-Jul-18 13:33N 34°29' E 033°21'1 1.2
2016-Jul-18 12:34N 34°30' E 033°23'1 1.1
2016-Jul-18 11:34N 34°30' E 033°21'1 0.9
2016-Jul-18 10:34N 34°30' E 033°20'1 0.9
2016-Jul-18 09:33N 34°29' E 033°19'1 0.8
2016-Jul-18 08:34N 34°29' E 033°18'0 0.4
2016-Jul-18 07:34N 34°28' E 033°18'4 4.1
2016-Jul-18 06:33N 34°30' E 033°22'1 0.7
2016-Jul-18 05:33N 34°30' E 033°22'1 0.6
2016-Jul-18 04:34N 34°29' E 033°22'1 0.5
2016-Jul-18 03:33N 34°29' E 033°21'0 0.4
2016-Jul-18 02:33N 34°28' E 033°21'0 0.4
2016-Jul-18 01:33N 34°28' E 033°20'0 0.4
2016-Jul-18 00:33N 34°28' E 033°20'0 0.4
2016-Jul-17 23:34N 34°28' E 033°20'0 0.5
2016-Jul-17 22:33N 34°28' E 033°19'1 0.5
2016-Jul-17 21:34N 34°29' E 033°19'3 2.9
2016-Jul-17 20:34N 34°28' E 033°15'7 7.1
2016-Jul-17 19:34N 34°28' E 033°06'1010.0
2016-Jul-17 18:34N 34°27' E 032°55'1312.7
2016-Jul-17 17:33N 34°26' E 032°39'1312.8
2016-Jul-17 16:32N 34°27' E 032°24'1212.6
2016-Jul-17 15:33N 34°29' E 032°09'1212.3
2016-Jul-17 14:33N 34°30' E 031°54'1312.1
2016-Jul-17 13:28N 34°32' E 031°38'1112.1
2016-Jul-17 12:33N 34°33' E 031°25'3812.3
2016-Jul-17 09:30N 34°39' E 030°39'1212.4
2016-Jul-17 08:33N 34°41' E 030°25'1812.4
2016-Jul-17 07:07N 34°43' E 030°04'  
Track history (hours):
 
Tides and Currents Weather Stations Pressure Air Temp Water Temp Dewpoint Dewpoint Depression Visibility Wind Speed Wind Dir Waves Ship Positions

Nautic

Last reported at 2016-Jul-22 20:09 UTC. Time now 2016-Jul-25 10:02 UTC.
Position N 31°28' E 032°19'.

; draft 8.5 m.

Type: Ship. MMSI: 636012754.

Date/timePositionNaut miles runAvg speedWind from/ knotsBaromVisibWave heightAir tempDewpointWater temp
2016-Jul-22 20:09N 31°28' E 032°19'0 0.0
2016-Jul-22 19:24N 31°28' E 032°19'182 5.9
2016-Jul-21 12:27N 34°23' E 033°15'9 9.6
2016-Jul-21 11:34N 34°32' E 033°17'0 0.5
2016-Jul-21 10:34N 34°32' E 033°17'4 4.4
2016-Jul-21 09:34N 34°31' E 033°23'3 2.6
2016-Jul-21 08:29N 34°32' E 033°26'1 1.0
2016-Jul-21 07:33N 34°32' E 033°27'0 0.3
2016-Jul-21 06:33N 34°32' E 033°27'0 0.3
2016-Jul-21 05:33N 34°32' E 033°27'0 0.4
2016-Jul-21 04:32N 34°31' E 033°26'0 0.4
2016-Jul-21 03:34N 34°31' E 033°26'0 0.4
2016-Jul-21 02:33N 34°31' E 033°25'0 0.4
2016-Jul-21 01:34N 34°31' E 033°25'0 0.3
2016-Jul-21 00:33N 34°31' E 033°25'0 0.4
2016-Jul-20 23:34N 34°30' E 033°24'0 0.4
2016-Jul-20 22:34N 34°30' E 033°24'0 0.4
2016-Jul-20 21:33N 34°30' E 033°24'0 0.4
2016-Jul-20 20:34N 34°29' E 033°23'0 0.4
2016-Jul-20 19:34N 34°29' E 033°23'0 0.4
2016-Jul-20 18:34N 34°29' E 033°23'0 0.3
2016-Jul-20 17:34N 34°29' E 033°22'0 0.3
2016-Jul-20 16:33N 34°29' E 033°22'0 0.3
2016-Jul-20 15:34N 34°29' E 033°21'0 0.4
2016-Jul-20 14:34N 34°29' E 033°21'0 0.5
2016-Jul-20 13:33N 34°29' E 033°20'1 0.5
2016-Jul-20 12:33N 34°29' E 033°20'1 0.6
2016-Jul-20 11:34N 34°29' E 033°19'1 0.6
2016-Jul-20 10:34N 34°29' E 033°18'1 0.5
2016-Jul-20 09:34N 34°29' E 033°18'1 0.5
2016-Jul-20 08:33N 34°29' E 033°17'1 1.3
2016-Jul-20 07:33N 34°27' E 033°16'3 3.3
2016-Jul-20 06:34N 34°24' E 033°16'6 2.8
2016-Jul-20 04:34N 34°25' E 033°23'0 0.5
2016-Jul-20 03:34N 34°25' E 033°23'2 2.1
2016-Jul-20 02:30N 34°25' E 033°20'2 0.8
2016-Jul-20 00:29N 34°25' E 033°19'1 0.7
2016-Jul-19 23:34N 34°24' E 033°18'1 0.6
2016-Jul-19 22:13N 34°24' E 033°17'0 0.5
2016-Jul-19 21:31N 34°24' E 033°17'0 0.1
2016-Jul-19 20:14N 34°24' E 033°17'2 2.3
2016-Jul-19 19:33N 34°23' E 033°18'4 3.8
2016-Jul-19 18:29N 34°22' E 033°23'1 0.4
2016-Jul-19 17:04N 34°23' E 033°24'0 0.6
2016-Jul-19 16:29N 34°23' E 033°24'4 0.8
2016-Jul-19 11:34N 34°24' E 033°19'1 0.6
2016-Jul-19 10:33N 34°24' E 033°18'2 1.7
2016-Jul-19 09:34N 34°23' E 033°20'1 0.5
2016-Jul-19 07:33N 34°23' E 033°19'4 1.2
2016-Jul-19 04:34N 34°25' E 033°23'1 1.0
2016-Jul-19 03:33N 34°24' E 033°22'1 0.8
2016-Jul-19 02:05N 34°23' E 033°21'0 0.6
2016-Jul-19 01:33N 34°23' E 033°21'1 0.5
2016-Jul-19 00:33N 34°23' E 033°20'0 0.5
2016-Jul-18 23:33N 34°22' E 033°20'0 0.5
2016-Jul-18 22:34N 34°23' E 033°19'1 0.5
2016-Jul-18 21:33N 34°23' E 033°19'1 0.7
2016-Jul-18 20:33N 34°23' E 033°18'1 1.1
2016-Jul-18 19:33N 34°24' E 033°18'3 3.2
2016-Jul-18 18:33N 34°27' E 033°19'2 1.9
2016-Jul-18 17:34N 34°29' E 033°20'1 0.8
2016-Jul-18 16:33N 34°29' E 033°20'1 0.9
2016-Jul-18 15:33N 34°30' E 033°19'1 0.6
2016-Jul-18 14:34N 34°30' E 033°18'3 2.8
2016-Jul-18 13:33N 34°29' E 033°21'1 1.2
2016-Jul-18 12:34N 34°30' E 033°23'1 1.1
2016-Jul-18 11:34N 34°30' E 033°21'1 0.9
2016-Jul-18 10:34N 34°30' E 033°20'1 0.9
2016-Jul-18 09:33N 34°29' E 033°19'1 0.8
2016-Jul-18 08:34N 34°29' E 033°18'0 0.4
2016-Jul-18 07:34N 34°28' E 033°18'4 4.1
2016-Jul-18 06:33N 34°30' E 033°22'1 0.7
2016-Jul-18 05:33N 34°30' E 033°22'1 0.6
2016-Jul-18 04:34N 34°29' E 033°22'1 0.5
2016-Jul-18 03:33N 34°29' E 033°21'0 0.4
2016-Jul-18 02:33N 34°28' E 033°21'0 0.4
2016-Jul-18 01:33N 34°28' E 033°20'0 0.4
2016-Jul-18 00:33N 34°28' E 033°20'0 0.4
2016-Jul-17 23:34N 34°28' E 033°20'0 0.5
2016-Jul-17 22:33N 34°28' E 033°19'1 0.5
2016-Jul-17 21:34N 34°29' E 033°19'3 2.9
2016-Jul-17 20:34N 34°28' E 033°15'7 7.1
2016-Jul-17 19:34N 34°28' E 033°06'1010.0
2016-Jul-17 18:34N 34°27' E 032°55'1312.7
2016-Jul-17 17:33N 34°26' E 032°39'1312.8
2016-Jul-17 16:32N 34°27' E 032°24'1212.6
2016-Jul-17 15:33N 34°29' E 032°09'1212.3
2016-Jul-17 14:33N 34°30' E 031°54'1312.1
2016-Jul-17 13:28N 34°32' E 031°38'1112.1
2016-Jul-17 12:33N 34°33' E 031°25'3812.3
2016-Jul-17 09:30N 34°39' E 030°39'1212.4
2016-Jul-17 08:33N 34°41' E 030°25'1812.4
2016-Jul-17 07:07N 34°43' E 030°04'  

Dump ship's entire track history